Time;durP1;ratioP1;P1;durP2;ratioP2;P2;SDS_P1;SDS_P2;PMS_P1;PMS_P2;Temp;Humidity;BMP_temperature;BMP_pressure;BME280_temperature;BME280_humidity;BME280_pressure;Samples;Min_cycle;Max_cycle;Signal;HPM_P1;HPM_P2
2022/04/02 00:01:17;;;;;;;15.95;14.35;;;1.10;99.90;;;;;;5026043;28;20024;-82
2022/04/02 00:03:43;;;;;;;14.20;12.52;;;1.10;99.90;;;;;;5028638;28;20562;-79
2022/04/02 00:06:09;;;;;;;18.35;16.45;;;1.00;99.90;;;;;;5051164;28;20525;-80
2022/04/02 00:08:34;;;;;;;18.73;16.73;;;1.10;99.90;;;;;;5031208;28;20027;-79
2022/04/02 00:11:00;;;;;;;17.13;15.38;;;1.10;99.90;;;;;;5051690;28;20045;-79
2022/04/02 00:13:26;;;;;;;21.45;17.65;;;1.10;99.90;;;;;;5036257;28;20431;-78
2022/04/02 00:15:52;;;;;;;18.95;17.00;;;1.10;99.90;;;;;;5036226;28;20410;-80
2022/04/02 00:18:18;;;;;;;17.40;15.60;;;1.10;99.90;;;;;;5048726;28;20398;-81
2022/04/02 00:20:43;;;;;;;18.90;16.75;;;1.10;99.90;;;;;;5050429;28;20017;-82
2022/04/02 00:25:53;;;;;;;17.80;15.73;;;1.10;99.90;;;;;;5055270;28;20062;-82
2022/04/02 00:28:19;;;;;;;18.77;15.98;;;1.10;99.90;;;;;;5046149;28;20021;-81
2022/04/02 00:30:44;;;;;;;18.58;16.63;;;1.10;99.90;;;;;;5055259;28;20037;-80
2022/04/02 00:33:10;;;;;;;19.85;17.00;;;1.20;99.90;;;;;;5036104;28;20055;-81
2022/04/02 00:35:36;;;;;;;19.63;17.08;;;1.20;99.90;;;;;;5051387;28;20021;-79
2022/04/02 00:38:02;;;;;;;21.58;17.92;;;1.20;99.90;;;;;;5047917;28;20048;-82
2022/04/02 00:40:28;;;;;;;18.48;16.52;;;1.20;99.90;;;;;;5037258;28;20021;-80
2022/04/02 00:42:54;;;;;;;17.48;15.68;;;1.20;99.90;;;;;;5030165;28;20025;-81
2022/04/02 00:45:20;;;;;;;16.58;14.88;;;1.20;99.90;;;;;;5035219;28;20056;-80
2022/04/02 00:47:45;;;;;;;19.45;17.42;;;1.20;99.90;;;;;;5029183;28;20486;-82
2022/04/02 00:50:11;;;;;;;17.55;15.85;;;1.20;99.90;;;;;;5027982;28;20053;-80
2022/04/02 00:52:38;;;;;;;14.10;12.68;;;1.20;99.90;;;;;;5042822;28;20029;-80
2022/04/02 00:55:05;;;;;;;18.20;16.20;;;1.20;99.90;;;;;;5049712;28;20074;-80
2022/04/02 00:57:31;;;;;;;19.73;17.65;;;1.20;99.90;;;;;;5032770;28;20029;-80
2022/04/02 00:59:57;;;;;;;21.30;16.35;;;1.30;99.90;;;;;;5028181;28;20483;-80
2022/04/02 01:02:22;;;;;;;20.05;16.80;;;1.20;99.90;;;;;;5027630;28;20041;-81
2022/04/02 01:04:48;;;;;;;18.65;16.65;;;1.20;99.90;;;;;;5035565;28;20110;-80
2022/04/02 01:07:19;;;;;;;19.20;15.48;;;1.30;99.90;;;;;;5036047;28;20032;-81
2022/04/02 01:09:45;;;;;;;18.90;16.33;;;1.30;99.90;;;;;;5053992;28;20101;-80
2022/04/02 01:12:11;;;;;;;18.25;16.17;;;1.20;99.90;;;;;;5031751;28;20079;-81
2022/04/02 01:14:36;;;;;;;18.42;16.60;;;1.20;99.90;;;;;;5052634;28;20021;-82
2022/04/02 01:17:04;;;;;;;16.25;14.57;;;1.30;99.90;;;;;;5037051;28;20035;-81
2022/04/02 01:19:29;;;;;;;15.30;11.68;;;1.30;99.90;;;;;;5034790;28;20521;-81
2022/04/02 01:21:55;;;;;;;18.92;15.27;;;1.20;99.90;;;;;;5049170;28;20108;-81
2022/04/02 01:24:21;;;;;;;17.45;15.65;;;1.30;99.90;;;;;;5030553;28;20021;-82
2022/04/02 01:26:47;;;;;;;18.17;16.38;;;1.30;99.90;;;;;;5042789;28;20035;-81
2022/04/02 01:29:12;;;;;;;17.17;15.48;;;1.30;99.90;;;;;;5037902;28;20044;-80
2022/04/02 01:31:43;;;;;;;17.52;15.68;;;1.30;99.90;;;;;;5045411;28;20094;-80
2022/04/02 01:34:08;;;;;;;16.65;14.85;;;1.30;99.90;;;;;;5028808;28;20033;-81
2022/04/02 01:36:34;;;;;;;15.98;14.38;;;1.40;99.90;;;;;;5032604;28;20072;-80
2022/04/02 01:38:59;;;;;;;17.33;15.35;;;1.30;99.90;;;;;;5031446;28;20025;-80
2022/04/02 01:41:25;;;;;;;17.35;15.23;;;1.30;99.90;;;;;;5047722;28;20047;-81
2022/04/02 01:43:51;;;;;;;17.08;15.38;;;1.30;99.90;;;;;;5033527;28;20021;-81
2022/04/02 01:46:16;;;;;;;16.73;15.00;;;1.40;99.90;;;;;;5034950;28;20029;-80
2022/04/02 01:48:42;;;;;;;14.13;12.63;;;1.30;99.90;;;;;;5049793;28;20560;-80
2022/04/02 01:51:08;;;;;;;16.35;14.45;;;1.30;99.90;;;;;;5035606;28;20116;-81
2022/04/02 01:53:34;;;;;;;16.85;15.15;;;1.40;99.90;;;;;;5050439;28;20041;-81
2022/04/02 01:55:59;;;;;;;17.77;15.98;;;1.40;99.90;;;;;;5050900;28;20051;-81
2022/04/02 01:58:25;;;;;;;15.45;13.95;;;1.50;99.90;;;;;;5029182;28;20211;-79
2022/04/02 02:00:51;;;;;;;14.80;13.07;;;1.40;99.90;;;;;;5050383;28;20021;-80
2022/04/02 02:03:17;;;;;;;16.20;13.98;;;1.50;99.90;;;;;;5052320;28;20437;-80
2022/04/02 02:05:44;;;;;;;17.20;13.73;;;1.40;99.90;;;;;;5044174;28;20048;-81
2022/04/02 02:08:09;;;;;;;16.13;14.63;;;1.40;99.90;;;;;;5049154;28;20021;-79
2022/04/02 02:10:35;;;;;;;13.73;12.35;;;1.40;99.90;;;;;;5036706;28;20394;-80
2022/04/02 02:13:01;;;;;;;15.30;13.70;;;1.50;99.90;;;;;;5035592;28;20021;-81
2022/04/02 02:15:27;;;;;;;18.17;12.93;;;1.50;99.90;;;;;;5027879;28;20083;-80
2022/04/02 02:17:53;;;;;;;18.58;12.00;;;1.50;99.90;;;;;;5043855;28;20025;-80
2022/04/02 02:20:20;;;;;;;14.75;12.05;;;1.60;99.90;;;;;;5025306;28;20026;-81
2022/04/02 02:22:47;;;;;;;14.43;12.75;;;1.60;99.90;;;;;;5053040;28;20510;-80
2022/04/02 02:25:16;;;;;;;12.77;11.48;;;1.60;99.90;;;;;;5043979;28;20029;-82
2022/04/02 02:27:44;;;;;;;12.80;11.60;;;1.50;99.90;;;;;;5050569;28;20032;-80
2022/04/02 02:30:12;;;;;;;13.68;12.23;;;1.50;99.90;;;;;;5034433;28;20052;-80
2022/04/02 02:32:37;;;;;;;13.95;10.63;;;1.40;99.90;;;;;;5024064;28;20024;-79
2022/04/02 02:38:06;;;;;;;11.93;10.82;;;1.60;99.90;;;;;;5048351;28;20036;-79
2022/04/02 02:40:32;;;;;;;10.73;9.25;;;1.70;99.90;;;;;;5034515;28;20108;-80
2022/04/02 02:42:58;;;;;;;12.73;11.23;;;1.60;99.90;;;;;;5047599;28;20036;-79
2022/04/02 02:45:24;;;;;;;11.95;10.60;;;1.50;99.90;;;;;;5035008;28;20047;-80
2022/04/02 02:47:50;;;;;;;11.68;10.57;;;1.70;99.90;;;;;;5047996;28;20040;-79
2022/04/02 02:50:15;;;;;;;14.98;11.00;;;1.60;99.90;;;;;;5048094;28;20060;-82
2022/04/02 02:52:41;;;;;;;12.27;11.02;;;1.60;99.90;;;;;;5052241;28;20021;-79
2022/04/02 02:55:08;;;;;;;14.20;10.82;;;1.60;99.90;;;;;;5049581;28;20026;-82
2022/04/02 02:57:41;;;;;;;12.38;11.15;;;1.80;99.90;;;;;;5029857;28;20033;-80
2022/04/02 03:00:09;;;;;;;9.48;8.23;;;1.80;99.90;;;;;;5043478;28;20024;-80
2022/04/02 03:02:37;;;;;;;10.40;9.27;;;1.80;99.90;;;;;;5042791;28;20678;-80
2022/04/02 03:05:06;;;;;;;11.60;9.25;;;1.90;99.90;;;;;;5047207;28;20110;-80
2022/04/02 03:07:48;;;;;;;10.52;9.52;;;1.90;99.90;;;;;;5046108;28;20487;-80
2022/04/02 03:10:18;;;;;;;10.32;9.32;;;1.80;99.90;;;;;;5048152;28;20028;-82
2022/04/02 03:12:44;;;;;;;9.95;8.10;;;1.80;99.90;;;;;;5051034;28;20039;-80
2022/04/02 03:15:11;;;;;;;14.07;9.10;;;1.80;99.90;;;;;;5032418;28;20029;-79
2022/04/02 03:17:37;;;;;;;13.63;10.00;;;1.80;99.90;;;;;;5050745;28;20100;-81
2022/04/02 03:20:04;;;;;;;10.90;9.23;;;1.80;99.90;;;;;;5029355;28;20049;-80
2022/04/02 03:22:30;;;;;;;9.68;8.80;;;1.70;99.90;;;;;;5029061;28;20018;-80
2022/04/02 03:24:55;;;;;;;10.32;9.27;;;1.80;99.90;;;;;;5051022;28;20115;-81
2022/04/02 03:27:21;;;;;;;10.30;8.68;;;1.70;99.90;;;;;;5051163;28;20178;-81
2022/04/02 03:29:48;;;;;;;9.43;8.43;;;1.70;99.90;;;;;;5035800;28;20037;-79
2022/04/02 03:32:14;;;;;;;15.05;10.13;;;1.60;99.90;;;;;;5054306;28;20021;-83
2022/04/02 03:34:39;;;;;;;11.13;8.75;;;1.60;99.90;;;;;;5054697;28;20368;-80
2022/04/02 03:37:05;;;;;;;14.93;9.20;;;1.50;99.90;;;;;;5046488;28;20040;-79
2022/04/02 03:39:31;;;;;;;12.98;8.00;;;1.50;99.90;;;;;;5052523;28;20641;-80
2022/04/02 03:41:56;;;;;;;12.02;9.40;;;1.50;99.90;;;;;;5054040;28;20025;-80
2022/04/02 03:44:22;;;;;;;12.15;9.77;;;1.40;99.90;;;;;;5045282;28;20096;-80
2022/04/02 03:49:32;;;;;;;13.20;9.30;;;1.40;99.90;;;;;;5052255;28;20032;-80
2022/04/02 03:51:57;;;;;;;14.05;10.13;;;1.40;99.90;;;;;;5054980;28;20028;-80
2022/04/02 03:54:23;;;;;;;9.38;7.60;;;1.40;99.90;;;;;;5033577;28;20491;-80
2022/04/02 03:56:48;;;;;;;14.00;8.48;;;1.50;99.90;;;;;;5055439;28;20036;-79
2022/04/02 03:59:14;;;;;;;14.23;9.18;;;1.30;99.90;;;;;;5053739;28;20021;-81
2022/04/02 04:01:40;;;;;;;11.90;7.85;;;1.30;99.90;;;;;;5033457;28;20022;-82
2022/04/02 04:04:06;;;;;;;10.00;8.02;;;1.40;99.90;;;;;;5054891;28;20113;-80
2022/04/02 04:06:31;;;;;;;12.82;9.05;;;1.40;99.90;;;;;;5053406;28;20025;-80
2022/04/02 04:08:58;;;;;;;11.48;7.00;;;1.30;99.90;;;;;;5052352;28;20029;-78
2022/04/02 04:11:26;;;;;;;12.18;7.97;;;1.30;99.90;;;;;;5034695;28;20082;-80
2022/04/02 04:13:52;;;;;;;12.05;7.85;;;1.30;99.90;;;;;;5051192;28;20025;-81
2022/04/02 04:16:17;;;;;;;14.70;7.70;;;1.30;99.90;;;;;;5029429;28;20107;-81
2022/04/02 04:18:43;;;;;;;10.18;7.32;;;1.40;99.90;;;;;;5036574;28;20094;-81
2022/04/02 04:21:08;;;;;;;13.00;8.13;;;1.40;99.90;;;;;;5031208;28;20021;-81
2022/04/02 04:23:34;;;;;;;16.50;8.35;;;1.30;99.90;;;;;;5028558;28;20511;-80
2022/04/02 04:26:00;;;;;;;8.40;6.97;;;1.30;99.90;;;;;;5053834;28;20024;-80
2022/04/02 04:28:26;;;;;;;12.82;7.95;;;1.40;99.90;;;;;;5036846;28;20079;-80
2022/04/02 04:30:52;;;;;;;8.43;7.45;;;1.40;99.90;;;;;;5053729;28;20029;-79
2022/04/02 04:33:17;;;;;;;16.08;8.07;;;1.40;99.90;;;;;;5054310;28;20025;-80
2022/04/02 04:35:43;;;;;;;9.57;8.57;;;1.30;99.90;;;;;;5049352;28;20498;-81
2022/04/02 04:38:08;;;;;;;11.48;9.95;;;1.30;99.90;;;;;;5034863;28;20024;-80
2022/04/02 04:40:34;;;;;;;12.45;11.35;;;1.40;99.90;;;;;;5041305;28;20449;-81
2022/04/02 04:43:00;;;;;;;10.93;9.82;;;1.20;99.90;;;;;;5029057;28;20028;-80
2022/04/02 04:45:25;;;;;;;10.80;9.70;;;1.00;99.90;;;;;;5025109;28;20179;-79
2022/04/02 04:47:51;;;;;;;11.05;9.98;;;0.90;99.90;;;;;;5037665;28;20029;-81
2022/04/02 04:50:19;;;;;;;13.48;10.90;;;1.10;99.90;;;;;;5054717;28;20035;-81
2022/04/02 04:52:45;;;;;;;14.27;10.40;;;0.90;99.90;;;;;;5049569;28;20010;-82
2022/04/02 04:55:10;;;;;;;11.02;9.90;;;0.80;99.90;;;;;;5048421;28;20075;-82
2022/04/02 04:57:37;;;;;;;12.70;11.50;;;0.80;99.90;;;;;;5054753;28;20029;-80
2022/04/02 05:00:06;;;;;;;10.18;9.27;;;0.80;99.90;;;;;;5053219;28;20021;-80
2022/04/02 05:02:32;;;;;;;11.80;10.02;;;0.70;99.90;;;;;;5066019;28;20013;-80
2022/04/02 05:04:57;;;;;;;12.02;10.48;;;0.60;99.90;;;;;;5047468;28;20364;-80
2022/04/02 05:07:23;;;;;;;12.15;9.43;;;0.70;99.90;;;;;;5034537;28;20044;-80
2022/04/02 05:09:49;;;;;;;12.75;11.45;;;0.70;99.90;;;;;;5050281;28;20399;-80
2022/04/02 05:12:15;;;;;;;10.80;9.80;;;0.70;99.90;;;;;;5053194;28;20029;-80
2022/04/02 05:14:41;;;;;;;11.88;10.75;;;0.80;99.90;;;;;;5028568;28;20050;-80
2022/04/02 05:17:06;;;;;;;12.50;11.20;;;0.80;99.90;;;;;;5027159;28;20451;-80
2022/04/02 05:19:32;;;;;;;10.52;9.43;;;0.70;99.90;;;;;;5021469;28;20104;-81
2022/04/02 05:21:58;;;;;;;13.48;11.90;;;0.70;99.90;;;;;;5049159;28;20021;-80
2022/04/02 05:24:24;;;;;;;14.85;11.50;;;0.80;99.90;;;;;;5033285;28;20025;-79
2022/04/02 05:26:49;;;;;;;12.73;9.68;;;0.80;99.90;;;;;;5029052;28;20026;-81
2022/04/02 05:29:15;;;;;;;11.65;10.55;;;0.80;99.90;;;;;;5049192;28;20048;-80
2022/04/02 05:31:41;;;;;;;10.55;9.55;;;0.80;99.90;;;;;;5043538;28;20017;-81
2022/04/02 05:34:08;;;;;;;14.35;10.93;;;0.90;99.90;;;;;;5031463;28;20390;-79
2022/04/02 05:36:34;;;;;;;11.25;10.23;;;1.00;99.90;;;;;;5035373;28;20033;-81
2022/04/02 05:39:00;;;;;;;16.13;10.55;;;1.00;99.90;;;;;;5052977;28;20024;-80
2022/04/02 05:41:25;;;;;;;10.02;9.02;;;0.80;99.90;;;;;;5027624;28;20021;-80
2022/04/02 05:43:51;;;;;;;10.63;9.55;;;0.80;99.90;;;;;;5044036;28;20025;-80
2022/04/02 05:46:17;;;;;;;11.50;10.20;;;0.80;99.90;;;;;;5032573;28;20074;-79
2022/04/02 05:48:42;;;;;;;10.90;9.82;;;0.90;99.90;;;;;;5044742;28;20031;-80
2022/04/02 05:51:08;;;;;;;11.32;10.27;;;0.90;99.90;;;;;;5032451;28;20025;-80
2022/04/02 05:53:34;;;;;;;10.27;9.18;;;0.90;99.90;;;;;;5050768;28;20056;-80
2022/04/02 05:56:01;;;;;;;10.63;9.52;;;0.80;99.90;;;;;;5037491;28;20033;-79
2022/04/02 05:58:27;;;;;;;10.18;9.18;;;0.80;99.90;;;;;;5030017;28;20112;-80
2022/04/02 06:00:53;;;;;;;10.82;9.82;;;0.90;99.90;;;;;;5044585;28;20026;-82
2022/04/02 06:03:20;;;;;;;10.00;9.07;;;0.80;99.90;;;;;;5028354;28;20017;-81
2022/04/02 06:05:48;;;;;;;12.00;9.32;;;0.80;99.90;;;;;;5031708;28;20037;-79
2022/04/02 06:08:15;;;;;;;9.80;8.88;;;1.00;99.90;;;;;;5033028;28;20033;-81
2022/04/02 06:10:42;;;;;;;8.85;8.02;;;1.00;99.90;;;;;;5049928;28;20044;-80
2022/04/02 06:13:07;;;;;;;9.55;8.65;;;1.00;99.90;;;;;;5031860;28;20075;-79
2022/04/02 06:15:34;;;;;;;11.27;9.10;;;1.00;99.90;;;;;;5030251;28;20034;-80
2022/04/02 06:18:01;;;;;;;7.72;6.60;;;1.00;99.90;;;;;;5034782;28;20053;-80
2022/04/02 06:20:26;;;;;;;10.18;9.18;;;1.00;99.90;;;;;;5032351;28;20025;-79
2022/04/02 06:22:53;;;;;;;5.63;5.07;;;1.00;99.90;;;;;;5023815;28;20022;-80
2022/04/02 06:25:19;;;;;;;8.68;7.90;;;1.00;99.90;;;;;;5031075;28;20116;-80
2022/04/02 06:27:45;;;;;;;8.00;7.07;;;1.10;99.90;;;;;;5050675;28;20045;-80
2022/04/02 06:30:13;;;;;;;8.98;7.78;;;1.00;99.90;;;;;;5037191;28;20090;-79
2022/04/02 06:32:38;;;;;;;7.57;6.93;;;1.10;99.90;;;;;;5051469;28;20021;-81
2022/04/02 06:35:05;;;;;;;7.78;7.10;;;1.20;99.90;;;;;;5033857;28;20029;-82
2022/04/02 06:37:40;;;;;;;8.65;7.80;;;1.30;99.90;;;;;;5031588;28;20025;-80
2022/04/02 06:40:09;;;;;;;9.88;7.45;;;1.50;99.90;;;;;;5032446;28;20104;-80
2022/04/02 06:42:36;;;;;;;7.25;6.50;;;1.40;99.90;;;;;;5028986;28;20021;-81
2022/04/02 06:45:02;;;;;;;7.40;4.93;;;1.20;99.90;;;;;;5027714;28;20029;-79
2022/04/02 06:47:30;;;;;;;7.97;7.18;;;1.30;99.90;;;;;;5032452;28;20066;-81
2022/04/02 06:49:56;;;;;;;7.93;7.15;;;1.30;99.90;;;;;;5031562;28;20029;-80
2022/04/02 06:52:23;;;;;;;8.30;7.25;;;1.40;99.90;;;;;;5050342;28;20429;-80
2022/04/02 06:54:49;;;;;;;7.38;6.60;;;1.30;99.90;;;;;;5051653;28;20521;-80
2022/04/02 06:57:20;;;;;;;7.63;6.75;;;1.40;99.90;;;;;;5053195;28;20041;-81
2022/04/02 06:59:46;;;;;;;8.18;6.53;;;1.40;99.90;;;;;;5046075;28;20087;-80
2022/04/02 07:02:11;;;;;;;7.13;6.43;;;1.70;99.90;;;;;;5049717;28;20033;-80
2022/04/02 07:04:37;;;;;;;7.20;5.68;;;1.50;99.90;;;;;;5046343;28;20094;-80
2022/04/02 07:07:02;;;;;;;7.63;6.68;;;1.30;99.90;;;;;;5034996;28;20071;-82
2022/04/02 07:09:28;;;;;;;5.05;4.47;;;1.50;99.90;;;;;;5044316;28;20037;-81
2022/04/02 07:11:55;;;;;;;6.05;5.47;;;1.40;99.90;;;;;;5045595;28;20025;-81
2022/04/02 07:14:21;;;;;;;7.68;6.35;;;1.30;99.90;;;;;;5024201;28;20037;-82
2022/04/02 07:16:46;;;;;;;7.70;6.93;;;1.50;99.90;;;;;;5029022;28;20518;-79
2022/04/02 07:19:13;;;;;;;9.52;6.82;;;1.50;99.90;;;;;;5035106;28;20513;-80
2022/04/02 07:21:40;;;;;;;7.53;6.82;;;1.70;99.90;;;;;;5028153;28;20025;-80
2022/04/02 07:24:06;;;;;;;7.63;6.93;;;1.30;99.90;;;;;;5028518;28;20017;-79
2022/04/02 07:26:32;;;;;;;9.43;7.43;;;1.40;99.90;;;;;;5030674;28;20084;-80
2022/04/02 07:28:59;;;;;;;6.97;6.38;;;1.50;99.90;;;;;;5038802;28;20021;-80
2022/04/02 07:31:25;;;;;;;8.27;7.47;;;1.50;99.90;;;;;;5042093;28;20028;-80
2022/04/02 07:33:50;;;;;;;8.35;7.50;;;1.30;99.90;;;;;;5023579;28;20029;-81
2022/04/02 07:36:23;;;;;;;7.28;6.22;;;1.30;99.90;;;;;;5043683;28;20028;-79
2022/04/02 07:39:21;;;;;;;7.00;6.40;;;1.40;99.90;;;;;;5045915;28;20029;-81
2022/04/02 07:41:56;;;;;;;8.20;6.47;;;1.50;99.90;;;;;;5037417;28;20492;-80
2022/04/02 07:44:30;;;;;;;8.20;7.25;;;1.60;99.90;;;;;;5048071;28;20025;-80
2022/04/02 07:46:58;;;;;;;7.80;7.10;;;1.50;99.90;;;;;;5033420;28;20025;-81
2022/04/02 07:49:26;;;;;;;7.47;6.68;;;1.60;99.90;;;;;;5049940;28;20033;-80
2022/04/02 07:51:53;;;;;;;6.75;6.15;;;1.50;99.90;;;;;;5027187;28;20055;-82
2022/04/02 07:54:23;;;;;;;8.93;6.32;;;1.30;99.90;;;;;;5032159;28;20055;-79
2022/04/02 07:56:55;;;;;;;8.18;7.47;;;1.20;99.90;;;;;;5035407;28;20020;-78
2022/04/02 07:59:30;;;;;;;6.47;5.88;;;1.30;99.90;;;;;;5039913;28;20033;-79
2022/04/02 08:01:57;;;;;;;7.30;6.63;;;1.30;99.90;;;;;;5049693;28;20510;-81
2022/04/02 08:04:25;;;;;;;6.60;5.95;;;1.30;99.90;;;;;;5019037;28;20021;-82
2022/04/02 08:06:52;;;;;;;6.90;6.22;;;1.30;99.90;;;;;;5048622;28;20029;-80
2022/04/02 08:09:19;;;;;;;5.55;5.05;;;1.40;99.90;;;;;;5051682;28;20464;-82
2022/04/02 08:11:48;;;;;;;7.00;6.40;;;1.40;99.90;;;;;;5029779;28;20029;-81
2022/04/02 08:14:14;;;;;;;6.63;6.03;;;1.30;99.90;;;;;;5051558;28;20020;-82
2022/04/02 08:16:43;;;;;;;7.20;6.50;;;1.50;99.90;;;;;;5046445;28;20049;-81
2022/04/02 08:19:09;;;;;;;7.30;5.85;;;1.20;99.90;;;;;;5059970;28;20029;-80
2022/04/02 08:21:35;;;;;;;8.02;5.82;;;1.40;99.90;;;;;;5042083;28;20177;-82
2022/04/02 08:24:02;;;;;;;5.38;4.88;;;1.30;99.90;;;;;;5032704;28;20050;-83
2022/04/02 08:26:41;;;;;;;7.47;6.75;;;1.30;99.90;;;;;;5028194;28;20023;-80
2022/04/02 08:29:29;;;;;;;8.95;7.45;;;1.00;99.90;;;;;;5042364;28;20126;-81
2022/04/02 08:32:33;;;;;;;6.75;6.03;;;1.10;99.90;;;;;;5050790;28;20155;-79
2022/04/02 08:35:04;;;;;;;7.15;6.45;;;0.90;99.90;;;;;;5053498;28;20025;-76
2022/04/02 08:37:49;;;;;;;7.93;7.22;;;1.00;99.90;;;;;;5029460;28;20025;-79
2022/04/02 08:40:20;;;;;;;7.10;4.93;;;1.10;99.90;;;;;;5048131;28;20036;-77
2022/04/02 08:43:39;;;;;;;8.60;6.93;;;0.90;99.90;;;;;;5035426;28;20029;-79
2022/04/02 08:46:04;;;;;;;8.68;7.88;;;0.90;99.90;;;;;;5046274;28;20041;-80
2022/04/02 08:48:35;;;;;;;9.07;6.63;;;1.10;99.90;;;;;;5051907;28;20534;-79
2022/04/02 08:51:13;;;;;;;7.57;6.85;;;1.00;99.90;;;;;;5050516;28;20029;-77
2022/04/02 08:54:04;;;;;;;8.45;7.65;;;1.20;99.90;;;;;;5046990;28;20033;-77
2022/04/02 08:56:34;;;;;;;9.88;7.57;;;1.40;99.90;;;;;;5035647;28;20114;-78
2022/04/02 08:59:08;;;;;;;7.72;7.03;;;1.30;99.90;;;;;;5047869;28;20095;-78
2022/04/02 09:02:07;;;;;;;7.93;7.20;;;1.40;99.90;;;;;;5044475;28;20483;-77
2022/04/02 09:05:01;;;;;;;9.18;5.85;;;1.40;99.90;;;;;;5026667;28;20040;-78
2022/04/02 09:07:51;;;;;;;8.27;7.53;;;1.30;99.90;;;;;;5030225;28;20111;-77
2022/04/02 09:10:40;;;;;;;10.75;8.13;;;1.40;99.90;;;;;;5028744;28;20075;-78
2022/04/02 09:13:15;;;;;;;8.70;7.68;;;1.50;99.90;;;;;;5047431;28;20021;-78
2022/04/02 09:16:04;;;;;;;9.05;8.18;;;1.40;99.90;;;;;;5036928;28;20426;-78
2022/04/02 09:18:39;;;;;;;8.52;7.72;;;1.30;99.90;;;;;;5027905;28;20037;-78
2022/04/02 09:21:13;;;;;;;8.70;7.90;;;1.30;99.90;;;;;;5031187;28;20086;-78
2022/04/02 09:23:44;;;;;;;9.25;8.35;;;1.20;99.90;;;;;;5042300;28;20013;-79
2022/04/02 09:26:28;;;;;;;;;;;1.30;99.90;;;;;;5049214;28;20044;-80
2022/04/02 09:29:14;;;;;;;8.55;7.50;;;1.50;99.90;;;;;;5027970;28;19905;-78
2022/04/02 09:31:58;;;;;;;9.27;8.40;;;1.30;99.90;;;;;;5047468;28;20355;-77
2022/04/02 09:34:51;;;;;;;9.00;8.20;;;1.50;99.90;;;;;;5044586;28;20071;-78
2022/04/02 09:37:53;;;;;;;9.43;7.38;;;1.50;99.90;;;;;;5045698;28;20036;-77
2022/04/02 09:40:32;;;;;;;8.20;7.40;;;1.20;99.90;;;;;;5044597;28;20037;-79
2022/04/02 09:43:03;;;;;;;10.20;9.20;;;1.40;99.90;;;;;;5050396;28;20025;-77
2022/04/02 09:45:44;;;;;;;10.68;9.35;;;1.30;99.90;;;;;;5043984;28;20100;-79
2022/04/02 09:48:31;;;;;;;8.45;7.45;;;1.50;99.90;;;;;;5025125;28;20018;-77
2022/04/02 09:50:57;;;;;;;10.27;9.23;;;1.20;99.90;;;;;;5027288;28;20049;-78
2022/04/02 09:53:31;;;;;;;9.73;8.75;;;1.10;99.90;;;;;;5049853;28;20077;-79
2022/04/02 09:56:22;;;;;;;9.23;8.38;;;1.20;99.90;;;;;;5024248;28;20106;-77
2022/04/02 09:58:50;;;;;;;;;;;1.40;99.90;;;;;;5031218;28;20021;-79
2022/04/02 10:01:26;;;;;;;8.52;7.53;;;1.70;99.90;;;;;;5025482;28;19968;-78
2022/04/02 10:03:53;;;;;;;8.02;7.22;;;1.40;99.90;;;;;;5029859;28;20024;-79
2022/04/02 10:06:27;;;;;;;10.77;9.43;;;1.30;99.90;;;;;;5046722;28;20053;-77
2022/04/02 10:09:09;;;;;;;12.88;8.02;;;1.10;99.90;;;;;;5029723;28;20032;-76
2022/04/02 10:11:43;;;;;;;12.80;8.98;;;1.40;99.90;;;;;;5025038;28;20406;-77
2022/04/02 10:14:09;;;;;;;8.77;7.97;;;1.50;99.90;;;;;;5027425;28;20510;-80
2022/04/02 10:16:35;;;;;;;14.32;8.20;;;1.30;99.90;;;;;;5043382;28;20028;-78
2022/04/02 10:19:06;;;;;;;9.40;8.48;;;1.60;99.90;;;;;;5044686;28;20021;-78
2022/04/02 10:21:35;;;;;;;;;;;1.60;99.90;;;;;;5043154;28;20024;-77
2022/04/02 10:24:22;;;;;;;7.40;6.63;;;1.80;99.90;;;;;;5042886;28;19940;-79
2022/04/02 10:26:55;;;;;;;10.48;8.55;;;1.40;99.90;;;;;;5042005;28;20032;-79
2022/04/02 10:29:37;;;;;;;9.02;8.13;;;1.80;99.90;;;;;;5045044;28;20098;-76
2022/04/02 10:32:28;;;;;;;10.75;9.70;;;2.00;99.90;;;;;;5025238;28;20061;-78
2022/04/02 10:35:08;;;;;;;9.25;7.88;;;1.80;99.90;;;;;;5051617;28;20047;-79
2022/04/02 10:37:42;;;;;;;8.63;7.73;;;1.60;99.90;;;;;;5044716;28;20032;-79
2022/04/02 10:40:15;;;;;;;10.73;8.27;;;1.50;99.90;;;;;;5027395;28;20032;-79
2022/04/02 10:42:51;;;;;;;16.55;9.38;;;1.60;99.90;;;;;;5042127;28;20097;-77
2022/04/02 10:45:21;;;;;;;10.00;7.70;;;1.80;99.90;;;;;;5028148;28;20025;-79
2022/04/02 10:48:10;;;;;;;10.35;9.35;;;1.90;99.90;;;;;;5023528;28;20021;-77
2022/04/02 10:50:37;;;;;;;7.90;6.75;;;2.00;99.90;;;;;;5045581;28;20072;-77
2022/04/02 10:53:04;;;;;;;8.52;7.15;;;1.70;99.90;;;;;;5029036;28;20075;-80
2022/04/02 10:55:30;;;;;;;8.85;7.20;;;1.60;99.90;;;;;;5047824;28;20017;-76
2022/04/02 10:57:59;;;;;;;9.30;8.43;;;1.60;99.90;;;;;;5047041;28;20034;-79
2022/04/02 11:00:29;;;;;;;8.85;8.05;;;1.60;99.90;;;;;;5025332;28;20021;-80
2022/04/02 11:03:05;;;;;;;7.63;6.82;;;1.80;99.90;;;;;;5045103;28;20538;-78
2022/04/02 11:05:35;;;;;;;9.48;8.30;;;1.40;99.90;;;;;;5044810;28;20048;-80
2022/04/02 11:08:15;;;;;;;8.25;7.47;;;1.50;99.90;;;;;;5029465;28;20033;-79
2022/04/02 11:10:47;;;;;;;7.57;6.82;;;1.40;99.90;;;;;;5045392;28;20029;-78
2022/04/02 11:13:29;;;;;;;10.52;9.15;;;1.20;99.90;;;;;;5044312;28;20162;-78
2022/04/02 11:15:55;;;;;;;10.68;9.00;;;1.10;99.90;;;;;;5051161;28;20546;-78
2022/04/02 11:18:21;;;;;;;8.93;8.07;;;1.20;99.90;;;;;;5041856;28;20061;-79
2022/04/02 11:20:54;;;;;;;9.35;8.52;;;1.40;99.90;;;;;;5038657;28;20021;-77
2022/04/02 11:23:50;;;;;;;9.63;8.70;;;1.80;99.90;;;;;;5047913;28;20017;-79
2022/04/02 11:26:20;;;;;;;9.80;8.80;;;1.80;99.90;;;;;;5045748;28;20178;-78
2022/04/02 11:28:49;;;;;;;9.10;8.20;;;1.90;99.90;;;;;;5023453;28;20029;-78
2022/04/02 11:31:25;;;;;;;11.27;10.23;;;1.70;99.90;;;;;;5032716;28;20033;-78
2022/04/02 11:33:52;;;;;;;9.50;8.57;;;1.80;99.90;;;;;;5044296;28;20067;-79
2022/04/02 11:36:23;;;;;;;10.40;8.55;;;1.70;99.90;;;;;;5041130;28;20040;-79
2022/04/02 11:39:01;;;;;;;8.82;8.02;;;1.80;99.90;;;;;;5028261;28;20387;-78
2022/04/02 11:41:34;;;;;;;8.20;6.68;;;1.70;99.90;;;;;;5045099;28;20059;-78
2022/04/02 11:44:07;;;;;;;9.75;8.85;;;1.40;99.90;;;;;;5030216;28;20052;-80
2022/04/02 11:47:01;;;;;;;11.88;9.55;;;1.40;99.90;;;;;;5044088;28;20109;-78
2022/04/02 11:49:40;;;;;;;11.07;8.77;;;1.70;99.90;;;;;;5031536;28;20021;-78
2022/04/02 11:52:10;;;;;;;9.68;8.77;;;1.80;99.90;;;;;;5031882;28;20021;-78
2022/04/02 11:54:59;;;;;;;15.18;11.18;;;1.90;99.90;;;;;;5033101;28;20048;-78
2022/04/02 11:57:25;;;;;;;15.00;10.02;;;1.90;99.90;;;;;;5039432;28;20037;-78
2022/04/02 11:59:51;;;;;;;9.82;8.95;;;1.80;99.90;;;;;;5047003;28;20056;-77
2022/04/02 12:02:34;;;;;;;10.95;9.95;;;1.90;99.90;;;;;;5028999;28;20025;-77
2022/04/02 12:05:00;;;;;;;11.40;10.30;;;2.10;99.90;;;;;;5038431;28;20055;-78
2022/04/02 12:07:38;;;;;;;11.50;10.40;;;2.10;99.90;;;;;;5024347;28;20032;-78
2022/04/02 12:10:04;;;;;;;12.23;10.88;;;2.20;99.90;;;;;;5030751;28;20025;-78
2022/04/02 12:12:31;;;;;;;11.55;10.45;;;2.20;99.90;;;;;;5046299;28;20081;-79
2022/04/02 12:15:09;;;;;;;11.13;9.95;;;2.10;99.90;;;;;;5050358;28;20086;-78
2022/04/02 12:17:36;;;;;;;16.13;10.25;;;1.90;99.90;;;;;;5032387;28;20028;-77
2022/04/02 12:20:03;;;;;;;12.48;11.27;;;2.10;99.90;;;;;;5055764;28;20095;-83
2022/04/02 12:22:31;;;;;;;11.70;10.70;;;2.10;99.90;;;;;;5026117;28;20111;-80
2022/04/02 12:25:01;;;;;;;12.10;10.90;;;2.00;99.90;;;;;;5039736;28;20029;-82
2022/04/02 12:27:35;;;;;;;13.02;11.73;;;2.00;99.90;;;;;;5047782;28;20049;-78
2022/04/02 12:30:04;;;;;;;12.55;11.35;;;1.90;99.90;;;;;;5036181;28;20029;-79
2022/04/02 12:32:37;;;;;;;13.50;12.20;;;1.90;99.90;;;;;;5050452;28;20042;-79
2022/04/02 12:35:05;;;;;;;13.27;11.48;;;1.70;99.90;;;;;;5028531;28;20028;-78
2022/04/02 12:37:38;;;;;;;14.05;12.75;;;1.80;99.90;;;;;;5044397;28;20040;-78
2022/04/02 12:40:24;;;;;;;13.35;12.05;;;1.90;99.90;;;;;;5032638;28;20036;-79
2022/04/02 12:42:56;;;;;;;14.60;11.45;;;2.00;99.90;;;;;;5043803;28;20532;-77
2022/04/02 12:45:24;;;;;;;13.57;12.18;;;2.00;99.90;;;;;;5046192;28;20021;-78
2022/04/02 12:48:02;;;;;;;13.32;12.07;;;2.10;99.90;;;;;;5032173;28;20083;-77
2022/04/02 12:50:40;;;;;;;12.77;11.52;;;2.20;99.90;;;;;;5045212;28;20025;-78
2022/04/02 12:53:06;;;;;;;12.90;11.65;;;2.30;99.90;;;;;;5033564;28;20029;-78
2022/04/02 12:55:33;;;;;;;13.27;11.63;;;2.40;99.90;;;;;;5033983;28;20087;-81
2022/04/02 12:58:10;;;;;;;13.52;12.30;;;2.40;99.90;;;;;;5046353;28;20495;-78
2022/04/02 13:00:38;;;;;;;11.70;10.63;;;2.30;99.90;;;;;;5030986;28;20490;-78
2022/04/02 13:03:05;;;;;;;12.10;10.80;;;2.00;99.90;;;;;;5043066;28;20143;-79
2022/04/02 13:05:51;;;;;;;11.63;10.43;;;2.10;99.90;;;;;;5050453;28;20020;-80
2022/04/02 13:08:17;;;;;;;11.02;9.80;;;2.20;99.90;;;;;;5051446;28;20026;-77
2022/04/02 13:10:43;;;;;;;11.85;10.25;;;2.20;99.90;;;;;;5051581;28;20021;-80